Aviation Digital Data Service (ADDS)

Output produced by METARs form (1744 UTC 25 February 2018)
found at http://aviationweather.gov/adds/metars/
 
KCAR 251729Z 2518/2618 15009KT P6SM OVC100 
     FM252000 15013KT 3SM -SN OVC030 
     FM252100 15013KT 3/4SM -SN VV010 
     FM260200 16010KT 3SM -SN BKN009 OVC015 
     FM260400 16010KT 3SM -FZDZ OVC007 
     FM261300 20007KT P6SM OVC015 
     FM261600 27010G20KT P6SM BKN035